Time;durP1;ratioP1;P1;durP2;ratioP2;P2;SDS_P1;SDS_P2;PMS_P1;PMS_P2;Temp;Humidity;BMP_temperature;BMP_pressure;BME280_temperature;BME280_humidity;BME280_pressure;Samples;Min_cycle;Max_cycle;Signal;HPM_P1;HPM_P2
2021/01/23 00:02:21;;;;;;;0.63;0.60;;;5.80;99.90;;;;;;5014729;28;20203;-78
2021/01/23 00:04:46;;;;;;;0.75;0.75;;;5.70;99.90;;;;;;5015465;28;20165;-77
2021/01/23 00:07:12;;;;;;;0.55;0.55;;;5.80;99.90;;;;;;5015527;28;20616;-77
2021/01/23 00:09:38;;;;;;;1.45;0.82;;;5.90;99.90;;;;;;4997820;28;20694;-77
2021/01/23 00:12:05;;;;;;;0.85;0.85;;;5.90;99.90;;;;;;5015540;28;20169;-77
2021/01/23 00:14:30;;;;;;;0.45;0.43;;;6.10;99.90;;;;;;5015144;28;20165;-77
2021/01/23 00:16:56;;;;;;;0.88;0.80;;;5.80;99.90;;;;;;4997641;28;20632;-77
2021/01/23 00:19:21;;;;;;;2.20;0.60;;;5.90;99.90;;;;;;5015257;28;20211;-77
2021/01/23 00:21:47;;;;;;;0.40;0.40;;;6.00;99.90;;;;;;5015111;28;20165;-77
2021/01/23 00:24:12;;;;;;;0.47;0.45;;;6.10;99.90;;;;;;5015234;28;20616;-77
2021/01/23 00:26:41;;;;;;;27.85;2.17;;;6.00;99.90;;;;;;5015068;28;20200;-77
2021/01/23 00:29:06;;;;;;;1.40;1.30;;;6.00;99.90;;;;;;5014897;28;20228;-77
2021/01/23 00:31:32;;;;;;;1.40;1.30;;;6.00;99.90;;;;;;5015243;28;20569;-77
2021/01/23 00:33:57;;;;;;;0.43;0.43;;;6.00;99.90;;;;;;5014898;28;20494;-77
2021/01/23 00:36:23;;;;;;;0.50;0.50;;;6.10;99.90;;;;;;5014757;28;20567;-77
2021/01/23 00:38:48;;;;;;;0.30;0.30;;;6.30;99.90;;;;;;5014874;28;20204;-77
2021/01/23 00:41:14;;;;;;;0.68;0.40;;;6.40;99.90;;;;;;5014680;28;20214;-78
2021/01/23 00:43:40;;;;;;;1.08;1.08;;;6.30;99.90;;;;;;5014742;28;20275;-78
2021/01/23 00:46:05;;;;;;;0.95;0.95;;;6.30;99.90;;;;;;5013382;28;20193;-78
2021/01/23 00:48:31;;;;;;;3.38;1.35;;;6.30;99.90;;;;;;5014714;28;20169;-78
2021/01/23 00:50:56;;;;;;;0.30;0.30;;;6.30;99.90;;;;;;5014759;28;20165;-78
2021/01/23 00:53:22;;;;;;;1.50;0.80;;;6.30;99.90;;;;;;5031591;22;20315;-77
2021/01/23 00:55:47;;;;;;;1.30;0.63;;;6.30;99.90;;;;;;5034368;28;20200;-77
2021/01/23 00:58:13;;;;;;;1.05;1.05;;;6.10;99.90;;;;;;5034796;28;20534;-75
2021/01/23 01:00:38;;;;;;;0.73;0.73;;;6.10;99.90;;;;;;5034289;28;20156;-77
2021/01/23 01:03:04;;;;;;;0.35;0.35;;;6.10;99.90;;;;;;5016337;28;20552;-77
2021/01/23 01:05:30;;;;;;;1.15;1.10;;;6.10;99.90;;;;;;5034114;28;20184;-76
2021/01/23 01:07:55;;;;;;;0.85;0.85;;;6.00;99.90;;;;;;5016342;28;20201;-77
2021/01/23 01:10:21;;;;;;;0.65;0.65;;;5.90;99.90;;;;;;5034170;28;20164;-75
2021/01/23 01:12:47;;;;;;;0.45;0.45;;;5.90;99.90;;;;;;5033962;28;20742;-77
2021/01/23 01:15:12;;;;;;;0.28;0.28;;;5.90;99.90;;;;;;5034004;28;20196;-75
2021/01/23 01:17:38;;;;;;;0.28;0.28;;;5.90;99.90;;;;;;5034344;28;20171;-77
2021/01/23 01:20:05;;;;;;;0.95;0.95;;;6.10;99.90;;;;;;5033926;28;20531;-77
2021/01/23 01:22:30;;;;;;;0.80;0.43;;;6.20;99.90;;;;;;5034043;28;20625;-77
2021/01/23 01:24:56;;;;;;;0.45;0.45;;;6.10;99.90;;;;;;5034145;28;20290;-76
2021/01/23 01:27:22;;;;;;;0.52;0.52;;;6.20;99.90;;;;;;5034672;28;20246;-77
2021/01/23 01:29:48;;;;;;;0.40;0.40;;;6.40;99.90;;;;;;5016790;28;20172;-76
2021/01/23 01:32:14;;;;;;;3.17;1.58;;;6.30;99.90;;;;;;5017461;28;20181;-76
2021/01/23 01:34:40;;;;;;;0.55;0.55;;;6.30;99.90;;;;;;5035289;28;20160;-76
2021/01/23 01:37:05;;;;;;;0.63;0.63;;;6.20;99.90;;;;;;5035772;28;20674;-76
2021/01/23 01:39:31;;;;;;;0.22;0.22;;;6.10;99.90;;;;;;5034300;28;20174;-77
2021/01/23 01:41:56;;;;;;;0.30;0.30;;;6.10;99.90;;;;;;5033803;28;20196;-77
2021/01/23 01:44:22;;;;;;;0.52;0.52;;;6.20;99.90;;;;;;5033729;28;20206;-78
2021/01/23 01:46:48;;;;;;;1.75;1.30;;;6.10;99.90;;;;;;5033622;28;20179;-76
2021/01/23 01:49:14;;;;;;;1.90;0.80;;;6.20;99.90;;;;;;5033556;28;20243;-77
2021/01/23 01:51:39;;;;;;;1.02;0.60;;;6.40;99.90;;;;;;5033656;28;20187;-75
2021/01/23 01:54:05;;;;;;;0.30;0.30;;;6.40;99.90;;;;;;5033674;28;20568;-76
2021/01/23 01:56:31;;;;;;;0.20;0.20;;;6.60;99.90;;;;;;5015815;28;20596;-76
2021/01/23 01:59:00;;;;;;;0.55;0.55;;;6.50;99.90;;;;;;5033497;28;20164;-77
2021/01/23 02:01:25;;;;;;;0.73;0.73;;;6.40;99.90;;;;;;5033662;28;20184;-77
2021/01/23 02:03:58;;;;;;;0.60;0.60;;;6.60;99.90;;;;;;5033406;28;20200;-77
2021/01/23 02:06:45;;;;;;;0.50;0.50;;;6.60;99.90;;;;;;5033284;28;20581;-76
2021/01/23 02:09:33;;;;;;;18.52;0.73;;;6.50;99.90;;;;;;5033104;28;20321;-76
2021/01/23 02:12:37;;;;;;;2.10;1.05;;;6.30;99.90;;;;;;5033243;28;20163;-75
2021/01/23 02:15:09;;;;;;;0.22;0.22;;;6.20;99.90;;;;;;5015934;28;20207;-77
2021/01/23 02:17:52;;;;;;;0.52;0.52;;;6.20;99.90;;;;;;5033155;28;20160;-77
2021/01/23 02:21:02;;;;;;;0.65;0.65;;;6.20;99.90;;;;;;5033191;28;20195;-78
2021/01/23 02:23:33;;;;;;;1.15;1.15;;;6.20;99.90;;;;;;5015192;28;20215;-77
2021/01/23 02:26:16;;;;;;;0.65;0.65;;;6.00;99.90;;;;;;5037270;28;20555;-76
2021/01/23 02:29:05;;;;;;;0.90;0.90;;;5.90;99.90;;;;;;5036960;28;20254;-77
2021/01/23 02:31:40;;;;;;;0.25;0.25;;;6.00;99.90;;;;;;5037022;28;20725;-76
2021/01/23 02:34:10;;;;;;;0.43;0.43;;;5.90;99.90;;;;;;5019433;28;20220;-76
2021/01/23 02:36:38;;;;;;;1.65;0.52;;;6.00;99.90;;;;;;5019391;28;20198;-77
2021/01/23 02:39:04;;;;;;;3.95;1.05;;;6.10;99.90;;;;;;5019321;28;20164;-77
2021/01/23 02:41:31;;;;;;;1.48;0.77;;;6.10;99.90;;;;;;5037056;28;20239;-77
2021/01/23 02:43:57;;;;;;;0.47;0.47;;;6.00;99.90;;;;;;5036950;28;20192;-77
2021/01/23 02:46:22;;;;;;;0.60;0.60;;;6.00;99.90;;;;;;5036867;28;20190;-77
2021/01/23 02:48:49;;;;;;;1.95;1.58;;;5.90;99.90;;;;;;5036933;28;20168;-75
2021/01/23 02:51:31;;;;;;;6.35;0.65;;;6.00;99.90;;;;;;5036639;28;20160;-76
2021/01/23 02:54:06;;;;;;;0.40;0.40;;;5.90;99.90;;;;;;5028542;28;20220;-76
2021/01/23 02:56:33;;;;;;;0.22;0.22;;;6.10;99.90;;;;;;5036509;28;20210;-76
2021/01/23 02:59:02;;;;;;;0.40;0.40;;;6.10;99.90;;;;;;5036659;28;20225;-75
2021/01/23 03:01:32;;;;;;;0.98;0.98;;;5.90;99.90;;;;;;5036592;28;20164;-76
2021/01/23 03:03:58;;;;;;;0.30;0.30;;;5.80;99.90;;;;;;5036368;28;20203;-77
2021/01/23 03:06:24;;;;;;;0.30;0.30;;;5.70;99.90;;;;;;5036284;28;20698;-76
2021/01/23 03:08:50;;;;;;;0.55;0.55;;;5.90;99.90;;;;;;5036414;28;20254;-76
2021/01/23 03:11:15;;;;;;;0.20;0.20;;;5.90;99.90;;;;;;5036271;28;20631;-75
2021/01/23 03:13:41;;;;;;;0.30;0.30;;;6.00;99.90;;;;;;5036968;28;20157;-75
2021/01/23 03:16:06;;;;;;;0.32;0.32;;;6.00;99.90;;;;;;5036759;28;20192;-76
2021/01/23 03:18:32;;;;;;;0.35;0.35;;;6.10;99.90;;;;;;5036230;28;20590;-76
2021/01/23 03:21:01;;;;;;;0.40;0.40;;;6.00;99.90;;;;;;5036218;28;20230;-75
2021/01/23 03:23:27;;;;;;;0.57;0.57;;;6.20;99.90;;;;;;5036120;28;20253;-78
2021/01/23 03:25:59;;;;;;;1.25;0.73;;;6.20;99.90;;;;;;5036000;28;20188;-75
2021/01/23 03:28:24;;;;;;;0.90;0.90;;;5.80;99.90;;;;;;5036192;28;20212;-77
2021/01/23 03:30:50;;;;;;;0.77;0.77;;;5.60;99.90;;;;;;5018310;28;20635;-76
2021/01/23 03:33:15;;;;;;;2.92;0.75;;;5.60;99.90;;;;;;5035912;28;20221;-77
2021/01/23 03:35:43;;;;;;;0.30;0.30;;;5.60;99.90;;;;;;5035447;28;20195;-76
2021/01/23 03:38:09;;;;;;;0.50;0.50;;;5.70;99.90;;;;;;5036133;28;20183;-77
2021/01/23 03:40:34;;;;;;;0.38;0.38;;;5.70;99.90;;;;;;5035814;28;20496;-76
2021/01/23 03:43:00;;;;;;;0.28;0.28;;;5.60;99.90;;;;;;5017844;28;20207;-75
2021/01/23 03:45:26;;;;;;;0.22;0.22;;;5.60;99.90;;;;;;5035562;28;20184;-76
2021/01/23 03:47:51;;;;;;;0.90;0.90;;;5.50;99.90;;;;;;5035632;28;20192;-75
2021/01/23 03:50:17;;;;;;;21.77;1.52;;;5.40;99.90;;;;;;5035676;28;20218;-75
2021/01/23 03:52:42;;;;;;;0.30;0.30;;;5.50;99.90;;;;;;5017797;28;20176;-75
2021/01/23 03:55:08;;;;;;;3.20;1.73;;;5.50;99.90;;;;;;5035119;28;20675;-75
2021/01/23 03:57:35;;;;;;;0.60;0.60;;;5.30;99.90;;;;;;5035651;28;20624;-77
2021/01/23 04:00:01;;;;;;;0.60;0.60;;;5.30;99.90;;;;;;5035452;28;20168;-78
2021/01/23 04:02:26;;;;;;;3.20;0.82;;;5.40;99.90;;;;;;5017457;28;20250;-76
2021/01/23 04:04:52;;;;;;;0.40;0.40;;;5.40;99.90;;;;;;5035218;28;20188;-77
2021/01/23 04:07:18;;;;;;;0.73;0.60;;;5.40;99.90;;;;;;5035305;28;20156;-76
2021/01/23 04:09:45;;;;;;;1.23;1.23;;;5.50;99.90;;;;;;5035265;28;20172;-76
2021/01/23 04:12:11;;;;;;;15.98;1.38;;;5.50;99.90;;;;;;5035304;28;20160;-76
2021/01/23 04:14:36;;;;;;;1.00;1.00;;;5.60;99.90;;;;;;5035162;28;20229;-77
2021/01/23 04:17:02;;;;;;;0.40;0.40;;;5.60;99.90;;;;;;5017456;28;20710;-76
2021/01/23 04:19:27;;;;;;;2.53;1.50;;;5.70;99.90;;;;;;5035042;28;20271;-76
2021/01/23 04:21:53;;;;;;;4.05;1.02;;;5.70;99.90;;;;;;5034997;28;20571;-75
2021/01/23 04:24:19;;;;;;;1.02;1.02;;;5.50;99.90;;;;;;5035428;28;20186;-77
2021/01/23 04:26:44;;;;;;;0.47;0.47;;;5.40;99.90;;;;;;5034761;28;20651;-77
2021/01/23 04:29:10;;;;;;;1.10;0.77;;;5.20;99.90;;;;;;5034877;28;20218;-75
2021/01/23 04:31:36;;;;;;;2.28;1.63;;;5.20;99.90;;;;;;5034664;28;20160;-77
2021/01/23 04:34:02;;;;;;;0.30;0.30;;;5.20;99.90;;;;;;5017123;28;20225;-77
2021/01/23 04:36:28;;;;;;;0.32;0.32;;;5.20;99.90;;;;;;5034735;28;20589;-77
2021/01/23 04:38:54;;;;;;;0.20;0.20;;;5.30;99.90;;;;;;5016903;28;20182;-75
2021/01/23 04:41:19;;;;;;;0.40;0.40;;;5.40;99.90;;;;;;5034701;28;20171;-76
2021/01/23 04:43:45;;;;;;;2.08;0.88;;;5.30;99.90;;;;;;5034737;28;20651;-75
2021/01/23 04:46:12;;;;;;;3.50;1.95;;;5.40;99.90;;;;;;5034150;28;20274;-76
2021/01/23 04:48:37;;;;;;;0.30;0.30;;;5.30;99.90;;;;;;5034123;28;20175;-76
2021/01/23 04:51:03;;;;;;;0.88;0.88;;;5.30;99.90;;;;;;5034371;28;20169;-76
2021/01/23 04:53:29;;;;;;;0.20;0.20;;;5.30;99.90;;;;;;5034178;28;20206;-77
2021/01/23 04:55:54;;;;;;;4.43;1.83;;;5.50;99.90;;;;;;5034115;28;20568;-76
2021/01/23 04:58:20;;;;;;;26.75;1.58;;;5.40;99.90;;;;;;5034169;28;20168;-76
2021/01/23 05:00:46;;;;;;;3.50;0.95;;;5.40;99.90;;;;;;5034234;28;20214;-77
2021/01/23 05:03:12;;;;;;;0.88;0.88;;;5.30;99.90;;;;;;5016324;28;20722;-77
2021/01/23 05:05:38;;;;;;;0.40;0.40;;;5.50;99.90;;;;;;5034046;28;20186;-76
2021/01/23 05:08:13;;;;;;;0.75;0.75;;;5.30;99.90;;;;;;5034029;28;20164;-77
2021/01/23 05:10:39;;;;;;;0.32;0.32;;;5.10;99.90;;;;;;5034136;28;20635;-76
2021/01/23 05:13:12;;;;;;;0.75;0.75;;;5.20;99.90;;;;;;5034065;28;20611;-77
2021/01/23 05:15:40;;;;;;;1.70;0.90;;;5.30;99.90;;;;;;5033993;28;20184;-76
2021/01/23 05:18:08;;;;;;;0.60;0.45;;;5.30;99.90;;;;;;5033989;28;20206;-76
2021/01/23 05:20:39;;;;;;;1.65;1.05;;;5.30;99.90;;;;;;5033821;28;20254;-77
2021/01/23 05:23:34;;;;;;;2.75;1.35;;;5.30;99.90;;;;;;5033712;28;20273;-76
2021/01/23 05:26:01;;;;;;;1.38;0.82;;;5.50;99.90;;;;;;5016569;28;20290;-76
2021/01/23 05:28:31;;;;;;;0.82;0.77;;;5.50;99.90;;;;;;5033658;28;20167;-76
2021/01/23 05:30:57;;;;;;;1.35;1.27;;;5.40;99.90;;;;;;5033770;28;20160;-77
2021/01/23 05:33:27;;;;;;;0.57;0.57;;;5.40;99.90;;;;;;5033654;28;20168;-76
2021/01/23 05:36:07;;;;;;;6.32;3.00;;;5.40;99.90;;;;;;5033335;28;20180;-77
2021/01/23 05:38:41;;;;;;;1.50;1.40;;;5.30;99.90;;;;;;5033530;28;20168;-77
2021/01/23 05:41:08;;;;;;;0.60;0.60;;;5.30;99.90;;;;;;5033560;28;20159;-76
2021/01/23 05:43:47;;;;;;;2.95;1.80;;;5.30;99.90;;;;;;5015726;28;20207;-77
2021/01/23 05:46:39;;;;;;;1.65;0.77;;;5.10;99.90;;;;;;5033594;28;20518;-77
2021/01/23 05:49:05;;;;;;;0.70;0.70;;;5.00;99.90;;;;;;5029966;28;20187;-76
2021/01/23 05:51:30;;;;;;;2.13;1.98;;;4.90;99.90;;;;;;5033446;28;20235;-77
2021/01/23 05:53:56;;;;;;;0.30;0.30;;;4.90;99.90;;;;;;5033289;28;20564;-78
2021/01/23 05:56:22;;;;;;;0.55;0.55;;;5.00;99.90;;;;;;5033102;28;20262;-77
2021/01/23 05:58:47;;;;;;;0.85;0.85;;;5.00;99.90;;;;;;5015481;28;20186;-77
2021/01/23 06:01:21;;;;;;;2.20;1.10;;;4.90;99.90;;;;;;5033218;28;20163;-77
2021/01/23 06:03:50;;;;;;;0.50;0.50;;;4.70;99.90;;;;;;5015433;28;20198;-77
2021/01/23 06:06:16;;;;;;;0.60;0.60;;;4.80;99.90;;;;;;5032952;28;20722;-77
2021/01/23 06:08:42;;;;;;;1.10;1.10;;;4.70;99.90;;;;;;5032992;28;20206;-77
2021/01/23 06:11:20;;;;;;;0.85;0.85;;;4.80;99.90;;;;;;5015433;28;20701;-77
2021/01/23 06:13:51;;;;;;;0.50;0.50;;;4.80;99.90;;;;;;5033067;28;20554;-78
2021/01/23 06:16:32;;;;;;;0.90;0.90;;;4.80;99.90;;;;;;5032847;28;20188;-77
2021/01/23 06:19:16;;;;;;;0.70;0.70;;;4.90;99.90;;;;;;5032850;28;20198;-77
2021/01/23 06:21:44;;;;;;;0.60;0.60;;;4.80;99.90;;;;;;5032847;28;20159;-77
2021/01/23 06:24:41;;;;;;;0.73;0.73;;;4.90;99.90;;;;;;5033278;28;20246;-76
2021/01/23 06:27:07;;;;;;;7.78;2.15;;;4.80;99.90;;;;;;5021908;28;20191;-77
2021/01/23 06:29:41;;;;;;;0.50;0.50;;;4.80;99.90;;;;;;5032923;28;20175;-76
2021/01/23 06:32:13;;;;;;;1.02;1.02;;;4.80;99.90;;;;;;5015175;28;20255;-77
2021/01/23 06:34:49;;;;;;;0.25;0.25;;;4.90;99.90;;;;;;5014860;28;20168;-76
2021/01/23 06:37:21;;;;;;;0.55;0.55;;;4.90;99.90;;;;;;5032893;28;20164;-76
2021/01/23 06:39:56;;;;;;;1.23;1.23;;;5.00;99.90;;;;;;5032747;28;20178;-77
2021/01/23 06:42:22;;;;;;;0.22;0.22;;;4.90;99.90;;;;;;5032680;28;20261;-77
2021/01/23 06:44:48;;;;;;;0.30;0.30;;;5.00;99.90;;;;;;5032625;28;21858;-75
2021/01/23 06:47:14;;;;;;;1.20;1.20;;;5.10;99.90;;;;;;5032803;28;20243;-76
2021/01/23 06:49:40;;;;;;;0.88;0.85;;;4.90;99.90;;;;;;5032625;28;20254;-76
2021/01/23 06:52:06;;;;;;;1.50;1.40;;;4.90;99.90;;;;;;5032529;28;20214;-76
2021/01/23 06:54:32;;;;;;;0.65;0.65;;;4.90;99.90;;;;;;5032767;28;20223;-77
2021/01/23 06:56:59;;;;;;;0.30;0.30;;;4.90;99.90;;;;;;5032986;28;20210;-78
2021/01/23 06:59:36;;;;;;;0.20;0.20;;;4.80;99.90;;;;;;5033133;28;20264;-76
2021/01/23 07:02:02;;;;;;;0.60;0.60;;;5.00;99.90;;;;;;5032722;28;20496;-76
2021/01/23 07:04:49;;;;;;;0.35;0.35;;;5.00;99.90;;;;;;5032854;28;20164;-77
2021/01/23 07:07:16;;;;;;;0.57;0.57;;;4.90;99.90;;;;;;5031917;28;20666;-76
2021/01/23 07:09:52;;;;;;;1.65;1.45;;;4.90;99.90;;;;;;5032845;28;20255;-77
2021/01/23 07:12:36;;;;;;;0.57;0.57;;;4.80;99.90;;;;;;5036024;28;20507;-75
2021/01/23 07:15:04;;;;;;;0.57;0.57;;;4.70;99.90;;;;;;5036083;28;20198;-76
2021/01/23 07:17:39;;;;;;;0.40;0.40;;;4.80;99.90;;;;;;5035895;28;20168;-75
2021/01/23 07:20:11;;;;;;;1.00;1.00;;;4.70;99.90;;;;;;5036033;28;20175;-75
2021/01/23 07:22:37;;;;;;;0.98;0.80;;;4.80;99.90;;;;;;5035750;28;20253;-77
2021/01/23 07:25:05;;;;;;;1.13;0.77;;;4.80;99.90;;;;;;5035942;28;20192;-77
2021/01/23 07:27:31;;;;;;;0.88;0.88;;;4.60;99.90;;;;;;5035880;28;20156;-77
2021/01/23 07:29:57;;;;;;;0.70;0.70;;;4.70;99.90;;;;;;5018385;28;20214;-77
2021/01/23 07:32:22;;;;;;;0.73;0.57;;;4.60;99.90;;;;;;5035634;28;20191;-76
2021/01/23 07:35:00;;;;;;;0.52;0.52;;;4.70;99.90;;;;;;5035593;28;20326;-76
2021/01/23 07:38:00;;;;;;;0.47;0.45;;;4.90;99.90;;;;;;5035856;28;20163;-77
2021/01/23 07:40:29;;;;;;;8.30;1.55;;;4.90;99.90;;;;;;5035891;28;20226;-76
2021/01/23 07:42:59;;;;;;;0.38;0.38;;;4.80;99.90;;;;;;5035364;28;20200;-77
2021/01/23 07:45:25;;;;;;;0.20;0.20;;;4.90;99.90;;;;;;5035539;28;20667;-77
2021/01/23 07:48:05;;;;;;;0.80;0.80;;;4.90;99.90;;;;;;5035390;28;20156;-77
2021/01/23 07:50:41;;;;;;;0.40;0.40;;;5.00;99.90;;;;;;5035523;28;20168;-76
2021/01/23 07:53:16;;;;;;;0.40;0.40;;;5.10;99.90;;;;;;5035295;28;20176;-77
2021/01/23 07:55:42;;;;;;;3.67;1.52;;;4.90;99.90;;;;;;5035265;28;20203;-76
2021/01/23 07:58:08;;;;;;;0.30;0.30;;;5.20;99.90;;;;;;5035358;28;20153;-77
2021/01/23 08:00:34;;;;;;;4.13;2.25;;;5.30;99.90;;;;;;5035678;28;20164;-77
2021/01/23 08:03:00;;;;;;;0.70;0.70;;;5.60;99.90;;;;;;5035168;28;20589;-78
2021/01/23 08:05:47;;;;;;;0.28;0.28;;;5.80;99.90;;;;;;5035131;28;20199;-77
2021/01/23 08:08:31;;;;;;;1.95;1.85;;;5.70;99.90;;;;;;5035009;28;20210;-77
2021/01/23 08:10:58;;;;;;;0.85;0.77;;;5.90;99.90;;;;;;5034995;28;20187;-77
2021/01/23 08:13:34;;;;;;;0.40;0.40;;;5.80;99.90;;;;;;5017390;28;20649;-77
2021/01/23 08:16:10;;;;;;;1.45;1.35;;;5.90;99.90;;;;;;5035065;28;20274;-77
2021/01/23 08:18:35;;;;;;;0.47;0.47;;;5.90;99.90;;;;;;5035042;28;20171;-77
2021/01/23 08:21:01;;;;;;;0.43;0.43;;;6.00;99.90;;;;;;5040674;28;20662;-77
2021/01/23 08:23:33;;;;;;;0.30;0.30;;;6.10;99.90;;;;;;5046106;28;20215;-79
2021/01/23 08:25:59;;;;;;;1.30;1.10;;;6.10;99.90;;;;;;5021877;28;20731;-81
2021/01/23 08:28:39;;;;;;;0.80;0.80;;;6.20;99.90;;;;;;5017556;28;20215;-84
2021/01/23 08:31:17;;;;;;;0.57;0.57;;;6.30;99.90;;;;;;5017336;28;20234;-77
2021/01/23 08:33:56;;;;;;;1.27;1.17;;;6.40;99.90;;;;;;5034589;28;20152;-77
2021/01/23 08:36:27;;;;;;;31.30;2.47;;;6.60;99.90;;;;;;5034611;28;20191;-77
2021/01/23 08:39:04;;;;;;;0.50;0.50;;;6.70;99.90;;;;;;5034770;28;20168;-77
2021/01/23 08:41:30;;;;;;;0.68;0.68;;;6.80;99.90;;;;;;5034589;28;20164;-77
2021/01/23 08:46:30;;;;;;;0.47;0.47;;;7.10;99.90;;;;;;5029434;28;20218;-78
2021/01/23 08:48:57;;;;;;;0.90;0.90;;;7.20;99.90;;;;;;5034254;28;20291;-78
2021/01/23 08:51:24;;;;;;;0.50;0.50;;;7.00;99.90;;;;;;5034198;28;20148;-78
2021/01/23 08:53:49;;;;;;;0.45;0.45;;;7.20;99.90;;;;;;5034061;28;20267;-78
2021/01/23 08:56:16;;;;;;;0.70;0.70;;;7.30;99.90;;;;;;5033967;28;20564;-78
2021/01/23 08:58:41;;;;;;;0.32;0.32;;;7.20;99.90;;;;;;5033938;28;20167;-78
2021/01/23 09:01:07;;;;;;;0.40;0.40;;;7.20;99.90;;;;;;5034137;28;20159;-78
2021/01/23 09:03:33;;;;;;;1.05;0.55;;;7.20;99.90;;;;;;5034030;28;20258;-78
2021/01/23 09:05:59;;;;;;;0.88;0.88;;;7.20;99.90;;;;;;5032369;28;20192;-78
2021/01/23 09:08:24;;;;;;;0.65;0.65;;;7.20;99.90;;;;;;5033793;28;20171;-78
2021/01/23 09:10:50;;;;;;;1.20;1.20;;;7.10;99.90;;;;;;5033856;28;20557;-77
2021/01/23 09:13:16;;;;;;;0.43;0.43;;;7.10;99.90;;;;;;5033786;28;20242;-77
2021/01/23 09:15:41;;;;;;;1.15;1.05;;;7.20;99.90;;;;;;5033877;28;20202;-78
2021/01/23 09:18:07;;;;;;;3.85;1.38;;;7.10;99.90;;;;;;5033642;28;20156;-78
2021/01/23 09:20:33;;;;;;;0.40;0.40;;;7.10;99.90;;;;;;5033985;28;20165;-78
2021/01/23 09:22:59;;;;;;;1.80;1.25;;;7.10;99.90;;;;;;5033514;28;20195;-78
2021/01/23 09:25:24;;;;;;;0.63;0.63;;;7.40;99.90;;;;;;5033562;28;20659;-78
2021/01/23 09:27:50;;;;;;;1.05;0.95;;;7.40;99.90;;;;;;5033648;28;20156;-78
2021/01/23 09:30:16;;;;;;;0.90;0.90;;;7.60;99.90;;;;;;5033463;28;20172;-78
2021/01/23 09:32:43;;;;;;;1.00;1.00;;;7.60;99.90;;;;;;5033115;28;20174;-78
2021/01/23 09:35:09;;;;;;;0.57;0.55;;;7.40;99.90;;;;;;5033408;28;20184;-78
2021/01/23 09:37:35;;;;;;;0.95;0.95;;;7.40;99.90;;;;;;5033539;28;20224;-78
2021/01/23 09:40:01;;;;;;;0.65;0.65;;;7.60;99.90;;;;;;5033216;28;20180;-83
2021/01/23 09:42:27;;;;;;;0.90;0.90;;;7.60;99.90;;;;;;5034248;28;20278;-78
2021/01/23 09:44:53;;;;;;;0.82;0.82;;;7.70;99.90;;;;;;5033171;28;20631;-78
2021/01/23 09:47:18;;;;;;;3.53;0.88;;;7.80;99.90;;;;;;5033399;28;20247;-85
2021/01/23 09:49:44;;;;;;;0.90;0.90;;;7.80;99.90;;;;;;5015432;28;20249;-79
2021/01/23 09:52:09;;;;;;;0.68;0.68;;;7.90;99.90;;;;;;5015560;28;20178;-79
2021/01/23 09:54:35;;;;;;;0.28;0.28;;;8.00;99.90;;;;;;5032904;28;20160;-79
2021/01/23 09:57:02;;;;;;;0.80;0.80;;;8.20;99.90;;;;;;5033148;28;20160;-79
2021/01/23 09:59:28;;;;;;;4.07;2.47;;;8.40;99.90;;;;;;5032461;28;20184;-79
2021/01/23 10:01:53;;;;;;;1.17;0.95;;;8.60;99.90;;;;;;5032847;28;20215;-80
2021/01/23 10:04:19;;;;;;;0.85;0.85;;;8.60;99.90;;;;;;5015193;28;20195;-79
2021/01/23 10:06:44;;;;;;;52.28;2.00;;;8.40;99.90;;;;;;5032809;28;20183;-80
2021/01/23 10:09:10;;;;;;;0.68;0.68;;;8.30;99.90;;;;;;5032823;28;20623;-79
2021/01/23 10:11:36;;;;;;;3.47;2.03;;;8.30;99.90;;;;;;5031422;28;20175;-79
2021/01/23 10:14:01;;;;;;;0.40;0.40;;;8.40;99.90;;;;;;5033035;28;20642;-79
2021/01/23 10:16:27;;;;;;;1.17;1.17;;;8.50;99.90;;;;;;5031354;28;20239;-79
2021/01/23 10:18:52;;;;;;;1.15;1.15;;;8.30;99.90;;;;;;5033141;28;20618;-79
2021/01/23 10:21:18;;;;;;;1.17;1.13;;;8.40;99.90;;;;;;5014784;28;20232;-79
2021/01/23 10:23:43;;;;;;;2.80;0.93;;;8.50;99.90;;;;;;5032594;28;20199;-80
2021/01/23 10:26:09;;;;;;;8.40;1.52;;;8.50;99.90;;;;;;5031385;28;20198;-80
2021/01/23 10:28:34;;;;;;;3.38;1.17;;;8.50;99.90;;;;;;5031512;28;20623;-80
2021/01/23 10:31:00;;;;;;;0.55;0.55;;;8.70;99.90;;;;;;5014800;28;20196;-80
2021/01/23 10:33:25;;;;;;;0.60;0.60;;;9.10;99.90;;;;;;5032376;28;20186;-80
2021/01/23 10:35:51;;;;;;;0.40;0.40;;;9.10;99.90;;;;;;5032576;28;20191;-78
2021/01/23 10:38:17;;;;;;;0.25;0.25;;;9.00;99.90;;;;;;5031333;28;20218;-78
2021/01/23 10:40:44;;;;;;;0.52;0.52;;;9.10;99.90;;;;;;5032467;28;20211;-78
2021/01/23 10:43:11;;;;;;;1.02;1.00;;;9.00;99.90;;;;;;5032256;28;20200;-79
2021/01/23 10:45:38;;;;;;;1.25;1.17;;;9.00;99.90;;;;;;5034028;28;20211;-78
2021/01/23 10:48:04;;;;;;;2.08;0.68;;;9.10;99.90;;;;;;5036566;28;20167;-77
2021/01/23 10:50:30;;;;;;;6.85;1.23;;;9.10;99.90;;;;;;5036397;28;20160;-78
2021/01/23 10:52:55;;;;;;;0.70;0.70;;;9.10;99.90;;;;;;5036383;28;20287;-78
2021/01/23 10:55:21;;;;;;;2.83;1.25;;;9.20;99.90;;;;;;5036217;28;20546;-78
2021/01/23 10:57:46;;;;;;;10.80;1.63;;;9.20;99.90;;;;;;5036263;28;20168;-78
2021/01/23 11:00:13;;;;;;;5.70;1.20;;;9.30;99.90;;;;;;5036200;28;20179;-78
2021/01/23 11:02:39;;;;;;;0.75;0.75;;;9.50;99.90;;;;;;5036147;28;20228;-77
2021/01/23 11:05:06;;;;;;;0.45;0.45;;;9.20;99.90;;;;;;5018362;28;20522;-79
2021/01/23 11:07:31;;;;;;;0.57;0.57;;;9.20;99.90;;;;;;5036014;28;20246;-78
2021/01/23 11:09:57;;;;;;;1.25;1.15;;;9.00;99.90;;;;;;5035835;28;20200;-78
2021/01/23 11:12:23;;;;;;;1.17;1.17;;;9.00;99.90;;;;;;5035979;28;20238;-78
2021/01/23 11:14:48;;;;;;;0.95;0.95;;;8.90;99.90;;;;;;5036069;28;20192;-78
2021/01/23 11:17:14;;;;;;;3.45;1.48;;;9.00;99.90;;;;;;5035829;28;20178;-78
2021/01/23 11:19:39;;;;;;;0.40;0.40;;;8.90;99.90;;;;;;5035854;28;20197;-78
2021/01/23 11:22:05;;;;;;;0.20;0.20;;;8.90;99.90;;;;;;5035820;28;20176;-78
2021/01/23 11:24:31;;;;;;;0.80;0.80;;;9.10;99.90;;;;;;5035768;28;20527;-78
2021/01/23 11:26:57;;;;;;;0.63;0.63;;;9.10;99.90;;;;;;5035664;28;20223;-78
2021/01/23 11:29:23;;;;;;;0.30;0.30;;;9.00;99.90;;;;;;5035713;28;20533;-78
2021/01/23 11:31:48;;;;;;;0.75;0.57;;;8.80;99.90;;;;;;5017852;28;20168;-85
2021/01/23 11:34:14;;;;;;;0.20;0.20;;;9.10;99.90;;;;;;5017749;28;20634;-77
2021/01/23 11:36:39;;;;;;;0.57;0.50;;;9.60;99.90;;;;;;5035557;28;20218;-77
2021/01/23 11:39:05;;;;;;;0.30;0.30;;;9.40;99.90;;;;;;5035522;28;20160;-77
2021/01/23 11:41:30;;;;;;;1.45;1.30;;;9.50;99.90;;;;;;5035661;28;20615;-78
2021/01/23 11:43:56;;;;;;;13.10;2.67;;;9.60;99.90;;;;;;5035387;28;20261;-78
2021/01/23 11:46:22;;;;;;;7.18;0.45;;;9.60;99.90;;;;;;5035170;28;20235;-78
2021/01/23 11:48:47;;;;;;;0.50;0.50;;;9.20;99.90;;;;;;5035175;28;20179;-78
2021/01/23 11:51:13;;;;;;;0.77;0.77;;;9.20;99.90;;;;;;5035496;28;20268;-78
2021/01/23 11:53:39;;;;;;;0.50;0.50;;;9.40;99.90;;;;;;5035314;28;20179;-78
2021/01/23 11:56:05;;;;;;;0.47;0.47;;;9.30;99.90;;;;;;5035014;28;20659;-78
2021/01/23 11:58:31;;;;;;;0.85;0.82;;;8.90;99.90;;;;;;5035083;28;20171;-77
2021/01/23 12:00:57;;;;;;;0.75;0.75;;;9.10;99.90;;;;;;5035271;28;20498;-77
2021/01/23 12:03:22;;;;;;;0.20;0.20;;;9.20;99.90;;;;;;5035110;28;20199;-78
2021/01/23 12:05:48;;;;;;;7.13;1.60;;;9.10;99.90;;;;;;5034935;28;20709;-77
2021/01/23 12:08:13;;;;;;;4.95;1.58;;;8.80;99.90;;;;;;5034884;28;20164;-78
2021/01/23 12:10:39;;;;;;;0.77;0.77;;;8.70;99.90;;;;;;5034737;28;20228;-77
2021/01/23 12:13:04;;;;;;;1.20;0.95;;;8.60;99.90;;;;;;5035006;28;20542;-78
2021/01/23 12:15:30;;;;;;;1.73;0.38;;;8.70;99.90;;;;;;5034900;28;20338;-77
2021/01/23 12:17:56;;;;;;;0.40;0.40;;;8.70;99.90;;;;;;5034797;28;20168;-85
2021/01/23 12:20:22;;;;;;;0.25;0.25;;;8.70;99.90;;;;;;5034701;28;20175;-78
2021/01/23 12:22:49;;;;;;;0.45;0.45;;;8.70;99.90;;;;;;5034683;28;20666;-78
2021/01/23 12:25:15;;;;;;;0.70;0.70;;;8.80;99.90;;;;;;5034512;28;20218;-77
2021/01/23 12:27:41;;;;;;;0.50;0.50;;;8.60;99.90;;;;;;5034535;28;20171;-78
2021/01/23 12:30:08;;;;;;;0.50;0.50;;;8.70;99.90;;;;;;5016697;28;20174;-78
2021/01/23 12:32:34;;;;;;;0.50;0.50;;;8.90;99.90;;;;;;5016702;28;20255;-78
2021/01/23 12:35:00;;;;;;;0.60;0.60;;;8.80;99.90;;;;;;5034274;28;20184;-77
2021/01/23 12:37:26;;;;;;;0.82;0.82;;;8.80;99.90;;;;;;5034350;28;20168;-79
2021/01/23 12:39:51;;;;;;;1.00;1.00;;;8.90;99.90;;;;;;5016558;28;20580;-78
2021/01/23 12:42:17;;;;;;;0.30;0.30;;;8.70;99.90;;;;;;5034184;28;20172;-78
2021/01/23 12:44:42;;;;;;;0.60;0.60;;;8.50;99.90;;;;;;5033984;28;20549;-82
2021/01/23 12:47:08;;;;;;;0.85;0.85;;;8.50;99.90;;;;;;5014139;28;20231;-77
2021/01/23 12:49:33;;;;;;;0.20;0.20;;;8.40;99.90;;;;;;5030812;28;20187;-80
2021/01/23 12:51:59;;;;;;;2.35;0.85;;;8.50;99.90;;;;;;5026603;28;20283;-80
2021/01/23 12:54:25;;;;;;;0.30;0.30;;;8.70;99.90;;;;;;4996720;28;20629;-78
2021/01/23 12:56:51;;;;;;;0.50;0.50;;;8.80;99.90;;;;;;5013894;28;20188;-77
2021/01/23 12:59:17;;;;;;;0.60;0.60;;;9.00;99.90;;;;;;5028343;28;20267;-77
2021/01/23 13:01:43;;;;;;;0.28;0.28;;;9.20;99.90;;;;;;5033754;28;20638;-77
2021/01/23 13:04:08;;;;;;;0.90;0.90;;;9.10;99.90;;;;;;5033494;28;20273;-78
2021/01/23 13:06:34;;;;;;;7.65;1.77;;;9.30;99.90;;;;;;5033578;28;20545;-76